Time;durP1;ratioP1;P1;durP2;ratioP2;P2;SDS_P1;SDS_P2;PMS_P1;PMS_P2;Temp;Humidity;BMP_temperature;BMP_pressure;BME280_temperature;BME280_humidity;BME280_pressure;Samples;Min_cycle;Max_cycle;Signal;HPM_P1;HPM_P2
2021/11/25 00:02:15;;;;;;;17.83;12.18;;;;;;;0.50;80.48;99339.50;5031609;28;20052;-71
2021/11/25 00:04:40;;;;;;;15.75;10.98;;;;;;;0.54;80.50;99342.03;5029399;28;20068;-71
2021/11/25 00:07:15;;;;;;;19.33;12.65;;;;;;;0.64;79.66;99342.75;5032274;28;20037;-72
2021/11/25 00:09:40;;;;;;;18.85;13.55;;;;;;;0.67;79.57;99334.06;5036053;28;20032;-71
2021/11/25 00:12:07;;;;;;;18.42;14.30;;;;;;;0.70;79.67;99334.00;5031932;28;20044;-71
2021/11/25 00:14:33;;;;;;;20.65;12.90;;;;;;;0.74;79.57;99327.84;5031004;28;20037;-71
2021/11/25 00:16:59;;;;;;;21.23;14.45;;;;;;;0.84;80.30;99322.50;5031637;28;20029;-73
2021/11/25 00:19:24;;;;;;;12.38;9.88;;;;;;;0.93;79.26;99325.81;5031531;28;20489;-72
2021/11/25 00:21:50;;;;;;;15.23;11.32;;;;;;;0.98;78.83;99327.44;5031498;28;20041;-72
2021/11/25 00:24:15;;;;;;;16.88;12.73;;;;;;;1.00;79.30;99324.81;5029344;28;20037;-72
2021/11/25 00:26:41;;;;;;;20.55;15.35;;;;;;;0.96;79.56;99317.97;5024019;28;20048;-71
2021/11/25 00:29:06;;;;;;;16.10;12.43;;;;;;;1.00;79.06;99310.09;5032481;28;20092;-71
2021/11/25 00:31:33;;;;;;;17.48;14.00;;;;;;;1.01;79.43;99311.81;5015803;28;20041;-72
2021/11/25 00:33:58;;;;;;;13.57;10.27;;;;;;;1.02;79.22;99295.34;5032093;28;20037;-72
2021/11/25 00:36:23;;;;;;;15.10;11.32;;;;;;;1.09;78.80;99295.25;5030787;28;20041;-72
2021/11/25 00:38:49;;;;;;;18.25;12.60;;;;;;;1.15;79.13;99290.78;5030711;28;20041;-70
2021/11/25 00:41:16;;;;;;;17.33;13.73;;;;;;;1.17;78.73;99291.63;5030283;28;20559;-71
2021/11/25 00:43:46;;;;;;;15.98;11.73;;;;;;;1.16;79.20;99295.09;5026896;28;20037;-71
2021/11/25 00:46:11;;;;;;;15.20;10.95;;;;;;;1.22;78.77;99297.56;5033347;28;20042;-72
2021/11/25 00:48:40;;;;;;;16.50;12.40;;;;;;;1.27;79.45;99281.91;5022285;28;20040;-73
2021/11/25 00:51:10;;;;;;;17.45;12.60;;;;;;;1.34;79.13;99273.13;5037146;28;20106;-71
2021/11/25 00:53:38;;;;;;;17.63;14.10;;;;;;;1.40;78.39;99272.97;5031507;28;20475;-71
2021/11/25 00:56:04;;;;;;;14.68;12.50;;;;;;;1.52;78.35;99273.63;5026691;28;20052;-73
2021/11/25 00:58:30;;;;;;;13.43;10.63;;;;;;;1.53;78.39;99277.91;5021915;28;20033;-73
2021/11/25 01:00:55;;;;;;;13.82;9.90;;;;;;;1.59;78.31;99277.81;5029393;28;20037;-72
2021/11/25 01:03:21;;;;;;;19.70;13.82;;;;;;;1.64;78.26;99283.75;5031698;28;20037;-72
2021/11/25 01:05:47;;;;;;;15.40;12.00;;;;;;;1.64;78.34;99281.16;5031018;28;20045;-71
2021/11/25 01:08:13;;;;;;;17.25;12.68;;;;;;;1.61;78.40;99281.22;5021505;28;20493;-72
2021/11/25 01:10:39;;;;;;;16.60;12.20;;;;;;;1.64;78.39;99283.75;5030741;28;20049;-73
2021/11/25 01:13:04;;;;;;;13.85;10.98;;;;;;;1.71;78.35;99281.00;5024187;28;20144;-72
2021/11/25 01:15:36;;;;;;;13.75;10.40;;;;;;;1.80;78.12;99276.50;5036745;28;20041;-71
2021/11/25 01:18:07;;;;;;;17.88;12.65;;;;;;;1.81;77.93;99276.44;5039191;28;20045;-72
2021/11/25 01:20:34;;;;;;;15.20;10.63;;;;;;;1.83;78.28;99279.03;5031747;28;20121;-72
2021/11/25 01:23:01;;;;;;;14.90;11.20;;;;;;;1.95;77.93;99275.31;5032392;28;20037;-72
2021/11/25 01:25:27;;;;;;;17.73;12.60;;;;;;;1.87;77.85;99268.53;5038487;28;20567;-72
2021/11/25 01:27:53;;;;;;;14.68;12.07;;;;;;;1.86;77.86;99278.97;5034273;28;20093;-71
2021/11/25 01:30:21;;;;;;;15.68;12.68;;;;;;;1.89;78.09;99274.53;5029952;28;20076;-71
2021/11/25 01:32:47;;;;;;;17.00;12.98;;;;;;;1.88;78.13;99262.44;5035515;28;20507;-71
2021/11/25 01:35:12;;;;;;;17.65;13.98;;;;;;;1.90;78.27;99267.63;5034633;28;20033;-70
2021/11/25 01:37:38;;;;;;;16.67;11.77;;;;;;;1.92;78.26;99264.09;5031565;28;20097;-72
2021/11/25 01:40:07;;;;;;;16.67;12.38;;;;;;;1.97;78.17;99274.38;5027764;28;20646;-72
2021/11/25 01:42:32;;;;;;;17.73;12.45;;;;;;;1.99;78.12;99269.97;5028275;28;20037;-71
2021/11/25 01:44:58;;;;;;;17.75;14.18;;;;;;;2.03;77.78;99263.00;5030565;28;20037;-70
2021/11/25 01:47:24;;;;;;;14.98;12.20;;;;;;;2.07;78.82;99270.69;5029479;28;20109;-72
2021/11/25 01:49:49;;;;;;;16.42;11.50;;;;;;;2.15;77.92;99266.16;5027679;28;20033;-70
2021/11/25 01:52:15;;;;;;;18.27;14.50;;;;;;;2.16;77.81;99264.41;5030945;28;20334;-72
2021/11/25 01:54:41;;;;;;;14.10;10.90;;;;;;;2.21;77.90;99267.75;5030575;28;20097;-71
2021/11/25 01:57:07;;;;;;;17.40;12.75;;;;;;;2.21;77.94;99257.34;5029022;28;20034;-70
2021/11/25 01:59:36;;;;;;;19.95;14.40;;;;;;;2.21;77.84;99262.53;5027415;28;20056;-72
2021/11/25 02:02:01;;;;;;;15.20;11.85;;;;;;;2.19;78.04;99259.16;5001974;28;20547;-71
2021/11/25 02:04:27;;;;;;;16.58;13.93;;;;;;;2.26;78.07;99258.09;5040063;28;20040;-72
2021/11/25 02:06:52;;;;;;;18.27;12.60;;;;;;;2.28;78.02;99258.91;5048897;28;20500;-72
2021/11/25 02:09:18;;;;;;;19.80;14.40;;;;;;;2.33;77.46;99259.66;5037906;28;20084;-72
2021/11/25 02:11:43;;;;;;;18.52;13.15;;;;;;;2.30;77.56;99249.31;5027874;28;20045;-72
2021/11/25 02:14:08;;;;;;;17.80;11.55;;;;;;;2.32;78.02;99260.56;5028442;28;20061;-72
2021/11/25 02:16:35;;;;;;;17.73;13.57;;;;;;;2.32;77.66;99252.75;5028342;28;20037;-71
2021/11/25 02:19:01;;;;;;;18.63;12.10;;;;;;;2.33;78.07;99244.03;5033942;28;20110;-71
2021/11/25 02:21:28;;;;;;;15.98;13.40;;;;;;;2.32;77.65;99252.75;5028233;28;20057;-71
2021/11/25 02:23:54;;;;;;;19.77;14.63;;;;;;;2.32;77.39;99242.34;5028442;28;20061;-71
2021/11/25 02:26:19;;;;;;;15.65;12.05;;;;;;;2.30;77.79;99241.53;5028136;28;20046;-72
2021/11/25 02:28:44;;;;;;;16.80;12.13;;;;;;;2.40;77.55;99238.72;5027359;28;20036;-71
2021/11/25 02:31:10;;;;;;;23.83;12.52;;;;;;;2.46;76.99;99238.53;5028026;28;20049;-71
2021/11/25 02:33:40;;;;;;;14.27;11.93;;;;;;;2.44;76.96;99233.41;5028387;28;20038;-71
2021/11/25 02:36:07;;;;;;;17.30;13.90;;;;;;;2.43;77.15;99221.25;5028730;28;20111;-72
2021/11/25 02:38:32;;;;;;;19.25;12.48;;;;;;;2.48;77.46;99222.00;5028521;28;20040;-73
2021/11/25 02:40:58;;;;;;;17.95;15.45;;;;;;;2.43;77.14;99210.00;5030263;28;20029;-71
2021/11/25 02:43:30;;;;;;;14.45;11.57;;;;;;;2.42;77.59;99216.13;5030573;28;20157;-72
2021/11/25 02:45:59;;;;;;;23.30;12.98;;;;;;;2.42;77.29;99216.97;5028170;28;20042;-72
2021/11/25 02:48:27;;;;;;;17.23;12.75;;;;;;;2.40;77.03;99210.09;5028156;28;20411;-72
2021/11/25 02:50:55;;;;;;;17.25;12.43;;;;;;;2.39;76.96;99208.38;5027593;28;20432;-71
2021/11/25 02:53:24;;;;;;;13.77;10.55;;;;;;;2.36;77.55;99201.50;5028108;28;20052;-73
2021/11/25 02:55:53;;;;;;;16.52;12.55;;;;;;;2.36;77.42;99199.78;5028462;28;20037;-72
2021/11/25 02:58:18;;;;;;;19.00;15.05;;;;;;;2.38;77.34;99191.06;5029194;28;20060;-72
2021/11/25 03:00:46;;;;;;;19.63;14.52;;;;;;;2.38;77.30;99198.88;5028418;28;20472;-72
2021/11/25 03:03:14;;;;;;;14.82;11.30;;;;;;;2.37;77.53;99192.81;5028649;28;20729;-72
2021/11/25 03:05:42;;;;;;;15.07;11.52;;;;;;;2.32;77.81;99192.94;5029824;28;20045;-72
2021/11/25 03:08:09;;;;;;;14.98;11.38;;;;;;;2.39;77.65;99187.56;5030603;28;20087;-73
2021/11/25 03:10:43;;;;;;;14.77;10.32;;;;;;;2.48;77.41;99189.94;5032733;28;20045;-73
2021/11/25 03:13:11;;;;;;;13.95;10.07;;;;;;;2.53;77.27;99195.88;5029226;28;20666;-72
2021/11/25 03:15:38;;;;;;;15.85;13.55;;;;;;;2.52;77.27;99178.56;5029307;28;20409;-73
2021/11/25 03:18:05;;;;;;;14.75;10.95;;;;;;;2.55;77.03;99181.91;5029379;28;20440;-73
2021/11/25 03:20:31;;;;;;;12.70;9.40;;;;;;;2.62;77.22;99189.56;5027841;28;20037;-72
2021/11/25 03:22:57;;;;;;;18.77;13.40;;;;;;;2.68;76.28;99185.03;5026428;28;20034;-72
2021/11/25 03:25:22;;;;;;;14.52;10.85;;;;;;;2.69;76.15;99176.34;5020127;28;20055;-72
2021/11/25 03:27:49;;;;;;;13.48;9.70;;;;;;;2.75;75.84;99185.75;5034606;28;20037;-73
2021/11/25 03:30:15;;;;;;;14.15;11.10;;;;;;;2.84;75.76;99179.44;5026598;28;20041;-72
2021/11/25 03:32:40;;;;;;;16.63;11.75;;;;;;;2.84;75.41;99182.91;5027342;28;20121;-72
2021/11/25 03:35:07;;;;;;;12.82;10.38;;;;;;;2.82;75.57;99179.47;5027457;28;20037;-73
2021/11/25 03:37:33;;;;;;;18.17;11.73;;;;;;;2.78;75.96;99170.03;5026807;28;20037;-71
2021/11/25 03:39:58;;;;;;;14.75;12.43;;;;;;;2.68;76.48;99160.78;5025127;28;20524;-72
2021/11/25 03:42:24;;;;;;;15.27;11.23;;;;;;;2.56;77.14;99155.03;5026165;28;20065;-72
2021/11/25 03:44:51;;;;;;;15.88;12.02;;;;;;;2.47;77.33;99154.41;5026741;28;20493;-72
2021/11/25 03:47:16;;;;;;;12.70;9.35;;;;;;;2.47;78.04;99162.22;5026538;28;20136;-72
2021/11/25 03:49:42;;;;;;;13.38;10.98;;;;;;;2.51;77.50;99156.03;5026440;28;20050;-71
2021/11/25 03:52:07;;;;;;;14.85;9.75;;;;;;;2.55;77.20;99161.09;5027105;28;20071;-71
2021/11/25 03:54:33;;;;;;;15.75;11.73;;;;;;;2.56;76.64;99160.22;5027183;28;20033;-71
2021/11/25 03:56:58;;;;;;;15.88;11.18;;;;;;;2.55;76.78;99153.28;5027767;28;20083;-72
2021/11/25 03:59:24;;;;;;;14.18;10.18;;;;;;;2.57;77.10;99161.06;5028393;28;20041;-72
2021/11/25 04:01:49;;;;;;;15.52;11.57;;;;;;;2.61;77.01;99162.72;5046075;28;20060;-71
2021/11/25 04:04:14;;;;;;;14.35;11.02;;;;;;;2.70;77.06;99172.84;5047485;28;20035;-71
2021/11/25 04:06:40;;;;;;;16.63;12.60;;;;;;;2.73;76.28;99166.69;5045229;28;20041;-71
2021/11/25 04:09:06;;;;;;;18.92;11.65;;;;;;;2.75;76.45;99160.56;5046438;28;20032;-72
2021/11/25 04:11:32;;;;;;;17.27;12.77;;;;;;;2.80;76.21;99158.69;5046668;28;20037;-71
2021/11/25 04:14:00;;;;;;;16.10;11.98;;;;;;;2.82;76.10;99157.81;5047011;28;20110;-71
2021/11/25 04:16:25;;;;;;;20.15;15.13;;;;;;;2.79;75.73;99167.41;5047904;28;20123;-71
2021/11/25 04:18:51;;;;;;;17.02;11.50;;;;;;;2.82;75.92;99161.25;5047099;28;20132;-72
2021/11/25 04:21:16;;;;;;;24.38;14.50;;;;;;;2.65;75.97;99158.25;5048867;28;20158;-72
2021/11/25 04:23:41;;;;;;;14.82;12.60;;;;;;;2.61;75.93;99154.91;5048626;28;20045;-72
2021/11/25 04:26:07;;;;;;;18.77;14.73;;;;;;;2.62;75.28;99158.34;5045760;28;20037;-73
2021/11/25 04:28:32;;;;;;;16.98;12.57;;;;;;;2.61;75.88;99161.84;5047659;28;20057;-73
2021/11/25 04:36:26;;;;;;;18.52;14.63;;;;;;;2.63;75.55;99162.66;5046998;28;20155;-72
2021/11/25 04:38:52;;;;;;;17.65;12.55;;;;;;;2.76;75.78;99164.88;5047677;28;20055;-72
2021/11/25 04:41:17;;;;;;;17.95;13.45;;;;;;;2.87;74.60;99167.19;5050781;28;20045;-72
2021/11/25 04:43:43;;;;;;;15.98;11.93;;;;;;;2.83;75.32;99160.38;5050238;28;20037;-72
2021/11/25 04:46:08;;;;;;;15.50;11.82;;;;;;;2.92;75.07;99154.03;5050192;28;20559;-72
2021/11/25 04:48:34;;;;;;;17.52;13.32;;;;;;;2.98;74.49;99161.69;5049299;28;20059;-71
2021/11/25 04:51:00;;;;;;;15.68;11.88;;;;;;;3.05;74.20;99154.53;5048840;28;20749;-72
2021/11/25 04:53:26;;;;;;;18.35;14.75;;;;;;;3.09;73.72;99149.19;5050452;28;20041;-72
2021/11/25 04:55:52;;;;;;;17.30;12.32;;;;;;;3.11;74.12;99143.97;5048948;28;20480;-72
2021/11/25 04:58:17;;;;;;;14.68;10.50;;;;;;;3.17;73.98;99156.78;5050605;28;20052;-72
2021/11/25 05:00:43;;;;;;;19.55;11.75;;;;;;;3.19;73.74;99155.00;5050479;28;20044;-73
2021/11/25 05:03:09;;;;;;;23.75;12.40;;;;;;;3.15;74.72;99153.38;5051472;28;20029;-71
2021/11/25 05:05:35;;;;;;;16.77;13.25;;;;;;;3.07;75.00;99144.94;5052128;28;20052;-72
2021/11/25 05:08:01;;;;;;;15.85;13.10;;;;;;;2.99;75.22;99145.16;5052743;28;20380;-73
2021/11/25 05:10:26;;;;;;;18.38;13.18;;;;;;;2.92;75.48;99143.63;5057009;28;20467;-72
2021/11/25 05:12:51;;;;;;;17.70;13.73;;;;;;;2.85;75.68;99148.16;5052654;28;20036;-72
2021/11/25 05:15:17;;;;;;;16.45;11.82;;;;;;;2.77;76.01;99148.38;5049712;28;20040;-73
2021/11/25 05:17:43;;;;;;;16.38;12.93;;;;;;;2.74;76.62;99145.00;5049933;28;20132;-73
2021/11/25 05:20:12;;;;;;;19.85;13.43;;;;;;;2.71;76.32;99147.69;5035775;28;20042;-73
2021/11/25 05:22:38;;;;;;;18.60;13.50;;;;;;;2.68;76.52;99152.97;5029780;28;20056;-72
2021/11/25 05:25:05;;;;;;;19.10;15.30;;;;;;;2.58;76.82;99163.66;5029686;28;20509;-70
2021/11/25 05:27:30;;;;;;;20.60;14.05;;;;;;;2.46;77.17;99163.09;5029518;28;20489;-72
2021/11/25 05:29:56;;;;;;;22.65;14.82;;;;;;;2.31;78.16;99167.81;5029039;28;20071;-72
2021/11/25 05:32:21;;;;;;;22.70;13.10;;;;;;;2.23;78.34;99174.09;5029384;28;20034;-72
2021/11/25 05:34:46;;;;;;;19.88;12.15;;;;;;;2.18;78.56;99176.81;5029034;28;20429;-72
2021/11/25 05:37:13;;;;;;;17.92;13.27;;;;;;;2.13;78.84;99165.69;5030130;28;20052;-71
2021/11/25 05:39:39;;;;;;;17.65;12.00;;;;;;;2.11;78.60;99168.31;5030129;28;20025;-70
2021/11/25 05:42:05;;;;;;;15.95;12.82;;;;;;;2.03;78.45;99172.00;5017038;28;20103;-72
2021/11/25 05:44:30;;;;;;;17.33;11.57;;;;;;;1.92;78.93;99173.13;5030338;28;20576;-73
2021/11/25 05:46:56;;;;;;;20.45;15.20;;;;;;;1.81;80.03;99177.69;5030361;28;20044;-72
2021/11/25 05:49:21;;;;;;;21.75;13.48;;;;;;;1.73;79.97;99174.44;5029914;28;20044;-71
2021/11/25 05:51:46;;;;;;;23.20;16.08;;;;;;;1.64;79.54;99172.03;5027499;28;20087;-72
2021/11/25 05:54:12;;;;;;;17.17;12.38;;;;;;;1.58;80.04;99169.59;5029999;28;20126;-74
2021/11/25 05:56:37;;;;;;;21.60;16.02;;;;;;;1.58;79.84;99174.78;5027295;28;20037;-72
2021/11/25 05:59:02;;;;;;;20.30;14.10;;;;;;;1.55;79.93;99173.13;5027002;28;20060;-70
2021/11/25 06:01:28;;;;;;;13.85;10.98;;;;;;;1.53;81.08;99167.09;5027733;28;20045;-74
2021/11/25 06:03:54;;;;;;;17.33;12.55;;;;;;;1.51;80.00;99171.47;5028515;28;20042;-72
2021/11/25 06:06:20;;;;;;;20.65;14.50;;;;;;;1.47;80.22;99164.63;5029031;28;20046;-72
2021/11/25 06:08:46;;;;;;;17.73;11.20;;;;;;;1.47;80.35;99160.28;5029404;28;20033;-72
2021/11/25 06:11:11;;;;;;;12.57;10.32;;;;;;;1.47;80.95;99160.28;5047720;28;20040;-72
2021/11/25 06:13:38;;;;;;;16.20;12.32;;;;;;;1.48;80.35;99158.56;5048327;28;20041;-72
2021/11/25 06:16:04;;;;;;;20.40;14.27;;;;;;;1.38;80.66;99150.13;5048796;28;20558;-71
2021/11/25 06:18:30;;;;;;;21.77;15.65;;;;;;;1.26;80.63;99146.03;5048805;28;20455;-72
2021/11/25 06:20:55;;;;;;;27.42;19.95;;;;;;;1.22;81.26;99154.78;5048956;28;20040;-73
2021/11/25 06:23:21;;;;;;;23.48;15.75;;;;;;;1.15;81.38;99141.97;5049199;28;20037;-73
2021/11/25 06:25:47;;;;;;;21.75;14.68;;;;;;;1.08;81.05;99141.22;5052315;28;20048;-73
2021/11/25 06:28:13;;;;;;;24.20;14.52;;;;;;;0.99;81.30;99141.44;5039884;28;20684;-72
2021/11/25 06:30:38;;;;;;;21.27;15.77;;;;;;;0.93;80.63;99138.97;5042474;28;20072;-72
2021/11/25 06:33:04;;;;;;;19.20;13.73;;;;;;;0.84;82.11;99143.47;5027558;28;20046;-71
2021/11/25 06:35:29;;;;;;;17.98;12.85;;;;;;;0.80;81.16;99140.97;5028770;28;20103;-72
2021/11/25 06:37:55;;;;;;;16.00;12.10;;;;;;;0.78;81.45;99143.56;5028815;28;20408;-71
2021/11/25 06:40:25;;;;;;;25.55;16.50;;;;;;;0.74;81.16;99141.94;5026731;28;20037;-73
2021/11/25 06:42:52;;;;;;;22.85;15.00;;;;;;;0.72;81.11;99141.13;5028655;28;20116;-72
2021/11/25 06:45:18;;;;;;;21.77;14.23;;;;;;;0.64;81.63;99132.63;5026835;28;20038;-72
2021/11/25 06:47:46;;;;;;;14.90;11.80;;;;;;;0.66;82.47;99135.19;5027907;28;20409;-71
2021/11/25 06:50:12;;;;;;;21.50;12.77;;;;;;;0.66;81.77;99137.78;5027930;28;20037;-73
2021/11/25 06:52:38;;;;;;;17.33;12.43;;;;;;;0.67;81.76;99140.34;5026491;28;20055;-73
2021/11/25 06:55:05;;;;;;;22.73;13.93;;;;;;;0.69;81.34;99146.38;5029214;28;20588;-72
2021/11/25 06:57:30;;;;;;;15.18;10.98;;;;;;;0.74;81.64;99156.63;5030072;28;20119;-72
2021/11/25 06:59:56;;;;;;;18.25;12.77;;;;;;;0.76;81.81;99160.06;5029247;28;20045;-72
2021/11/25 07:02:21;;;;;;;17.52;13.02;;;;;;;0.76;81.96;99157.47;5030515;28;20045;-72
2021/11/25 07:04:47;;;;;;;18.13;13.23;;;;;;;0.80;81.69;99156.53;5028856;28;20053;-72
2021/11/25 07:07:12;;;;;;;19.67;12.95;;;;;;;0.79;81.59;99162.59;5029544;28;20052;-73
2021/11/25 07:09:38;;;;;;;18.23;12.23;;;;;;;0.84;81.54;99169.41;5027561;28;20038;-72
2021/11/25 07:12:03;;;;;;;21.70;14.20;;;;;;;0.88;81.05;99175.38;5029825;28;20064;-71
2021/11/25 07:14:29;;;;;;;19.23;12.98;;;;;;;0.89;81.62;99173.63;5028321;28;20049;-72
2021/11/25 07:16:55;;;;;;;19.23;13.50;;;;;;;0.92;81.12;99178.78;5027608;28;20045;-71
2021/11/25 07:19:20;;;;;;;27.42;16.80;;;;;;;0.93;81.02;99183.94;5029793;28;20562;-72
2021/11/25 07:21:46;;;;;;;18.02;13.00;;;;;;;0.97;81.02;99188.19;5026453;28;20040;-71
2021/11/25 07:24:11;;;;;;;23.25;17.23;;;;;;;1.00;81.22;99188.09;5027666;28;20127;-71
2021/11/25 07:26:37;;;;;;;23.55;17.05;;;;;;;1.03;80.70;99190.66;5027996;28;20061;-72
2021/11/25 07:29:02;;;;;;;22.88;15.55;;;;;;;1.15;81.23;99188.69;5028008;28;20041;-62
2021/11/25 07:31:29;;;;;;;23.38;16.67;;;;;;;1.25;79.79;99191.06;5027049;28;20128;-64
2021/11/25 07:33:57;;;;;;;23.67;17.77;;;;;;;1.29;79.41;99184.06;5025531;28;20547;-72
2021/11/25 07:36:23;;;;;;;29.55;17.45;;;;;;;1.25;79.76;99183.25;5027525;28;20144;-72
2021/11/25 07:38:49;;;;;;;25.92;16.95;;;;;;;1.15;79.53;99192.13;5026489;28;20112;-72
2021/11/25 07:41:14;;;;;;;27.00;19.00;;;;;;;1.14;79.75;99187.00;5026878;28;20037;-73
2021/11/25 07:43:39;;;;;;;24.48;17.10;;;;;;;1.12;80.13;99189.59;5027130;28;20042;-73
2021/11/25 07:46:05;;;;;;;29.88;20.58;;;;;;;1.14;79.42;99193.03;5027026;28;20042;-73
2021/11/25 07:48:31;;;;;;;30.80;21.50;;;;;;;1.13;79.59;99177.47;5025952;28;20045;-72
2021/11/25 07:50:57;;;;;;;29.17;17.65;;;;;;;1.14;80.32;99174.88;5025747;28;20060;-73
2021/11/25 07:53:22;;;;;;;32.97;23.00;;;;;;;1.14;79.84;99172.25;5025934;28;21764;-72
2021/11/25 07:55:47;;;;;;;37.85;18.55;;;;;;;1.15;79.96;99165.31;5025532;28;20673;-72
2021/11/25 07:58:13;;;;;;;30.50;19.92;;;;;;;1.14;80.13;99159.28;5027948;28;20029;-73
2021/11/25 08:00:38;;;;;;;30.38;20.98;;;;;;;1.13;80.25;99169.69;5026890;28;20094;-72
2021/11/25 08:03:04;;;;;;;34.20;21.05;;;;;;;1.15;80.83;99170.53;5025930;28;20029;-73
2021/11/25 08:05:30;;;;;;;30.45;20.10;;;;;;;1.21;80.76;99173.84;5026037;28;20041;-73
2021/11/25 08:07:57;;;;;;;36.20;19.50;;;;;;;1.20;79.88;99166.94;5028713;28;20038;-72
2021/11/25 08:10:26;;;;;;;23.30;17.23;;;;;;;1.23;79.96;99163.41;5027204;28;20052;-72
2021/11/25 08:12:58;;;;;;;33.13;22.25;;;;;;;1.24;79.80;99157.34;5027583;28;20037;-72
2021/11/25 08:15:25;;;;;;;27.83;18.92;;;;;;;1.24;79.70;99155.59;5031483;28;20037;-72
2021/11/25 08:17:50;;;;;;;22.60;16.92;;;;;;;1.23;79.65;99155.63;5031766;28;20716;-72
2021/11/25 08:20:16;;;;;;;24.70;18.55;;;;;;;1.28;79.31;99156.41;5030774;28;20041;-72
2021/11/25 08:22:42;;;;;;;25.30;17.55;;;;;;;1.30;79.89;99157.19;5031556;28;20030;-72
2021/11/25 08:25:08;;;;;;;28.15;18.98;;;;;;;1.35;80.05;99157.94;5031681;28;20515;-72
2021/11/25 08:27:35;;;;;;;26.38;18.55;;;;;;;1.38;79.31;99160.50;5032595;28;20029;-72
2021/11/25 08:30:02;;;;;;;27.13;20.55;;;;;;;1.42;79.17;99163.88;5032215;28;20107;-72
2021/11/25 08:32:27;;;;;;;30.10;21.85;;;;;;;1.45;79.05;99164.69;5031761;28;20033;-73
2021/11/25 08:34:54;;;;;;;29.38;18.52;;;;;;;1.49;79.11;99168.91;5034610;28;20030;-73
2021/11/25 08:37:19;;;;;;;26.15;17.98;;;;;;;1.48;79.40;99167.19;5034632;28;20052;-72
2021/11/25 08:39:45;;;;;;;31.08;19.38;;;;;;;1.48;79.53;99166.34;5043664;28;20038;-72
2021/11/25 08:42:10;;;;;;;27.83;19.98;;;;;;;1.47;79.15;99167.22;5045749;28;20045;-74
2021/11/25 08:44:36;;;;;;;25.55;17.75;;;;;;;1.49;79.89;99171.50;5035757;28;20056;-73
2021/11/25 08:47:01;;;;;;;28.75;19.23;;;;;;;1.53;79.11;99168.81;5031505;28;20489;-72
2021/11/25 08:49:28;;;;;;;25.45;18.33;;;;;;;1.59;79.10;99168.69;5030744;28;20058;-72
2021/11/25 08:51:53;;;;;;;29.27;19.88;;;;;;;1.67;79.58;99166.78;5030253;28;20783;-72
2021/11/25 08:54:21;;;;;;;24.52;18.40;;;;;;;1.79;78.91;99171.69;5028796;28;20041;-73
2021/11/25 08:56:48;;;;;;;25.73;18.00;;;;;;;1.87;79.21;99174.97;5030158;28;20026;-73
2021/11/25 08:59:14;;;;;;;31.10;21.48;;;;;;;1.98;78.94;99173.84;5029764;28;20044;-72
2021/11/25 09:01:39;;;;;;;24.50;18.83;;;;;;;2.12;78.78;99176.97;5028842;28;20026;-72
2021/11/25 09:04:05;;;;;;;31.23;21.85;;;;;;;2.67;77.62;99183.34;5030421;28;20091;-73
2021/11/25 09:06:30;;;;;;;26.42;19.98;;;;;;;2.83;76.92;99181.19;5029987;28;20041;-73
2021/11/25 09:08:55;;;;;;;34.60;25.17;;;;;;;2.99;76.04;99181.63;5029152;28;20116;-72
2021/11/25 09:11:21;;;;;;;40.67;27.65;;;;;;;3.92;73.16;99185.78;5029247;28;20045;-72
2021/11/25 09:13:46;;;;;;;31.25;21.45;;;;;;;4.99;70.60;99181.25;5027715;28;20032;-73
2021/11/25 09:16:12;;;;;;;28.75;20.92;;;;;;;5.90;65.95;99178.69;5028347;28;20036;-73
2021/11/25 09:18:38;;;;;;;28.23;21.73;;;;;;;6.74;63.99;99182.19;5029001;28;20034;-72
2021/11/25 09:21:04;;;;;;;30.17;22.38;;;;;;;7.27;60.77;99186.84;5030213;28;20041;-74
2021/11/25 09:23:30;;;;;;;28.67;22.80;;;;;;;7.95;59.30;99181.94;5029642;28;20034;-73
2021/11/25 09:25:56;;;;;;;25.65;19.83;;;;;;;8.08;58.36;99174.31;5028523;28;20037;-73
2021/11/25 09:28:25;;;;;;;23.55;20.58;;;;;;;7.50;59.93;99179.69;5030347;28;20048;-73
2021/11/25 09:30:52;;;;;;;29.25;21.90;;;;;;;6.73;61.66;99180.50;5028149;28;20033;-73
2021/11/25 09:33:19;;;;;;;30.08;21.42;;;;;;;6.04;64.44;99170.31;5031707;28;20080;-74
2021/11/25 09:35:45;;;;;;;31.08;24.20;;;;;;;5.68;65.49;99175.22;5033653;28;20034;-73
2021/11/25 09:38:11;;;;;;;31.25;23.80;;;;;;;5.42;66.64;99178.84;5030499;28;20041;-73
2021/11/25 09:40:41;;;;;;;35.42;25.02;;;;;;;5.27;66.89;99180.28;5031455;28;20025;-72
2021/11/25 09:43:10;;;;;;;32.97;25.92;;;;;;;5.20;67.07;99176.19;5029702;28;20022;-73
2021/11/25 09:45:37;;;;;;;36.53;25.08;;;;;;;5.10;67.35;99170.44;5029661;28;20041;-73
2021/11/25 09:48:11;;;;;;;36.05;27.35;;;;;;;5.02;68.37;99167.25;5029774;28;20029;-73
2021/11/25 09:50:40;;;;;;;35.17;26.02;;;;;;;4.83;69.18;99173.16;5029318;28;20485;-73
2021/11/25 09:53:08;;;;;;;45.05;26.50;;;;;;;4.67;69.21;99175.44;5029351;28;20120;-73
2021/11/25 09:55:37;;;;;;;34.88;25.50;;;;;;;4.62;69.43;99179.97;5028463;28;20033;-72
2021/11/25 09:58:03;;;;;;;42.85;28.52;;;;;;;4.55;69.49;99177.63;5027778;28;20112;-73
2021/11/25 10:00:32;;;;;;;40.97;28.08;;;;;;;4.38;69.95;99181.69;5029145;28;20039;-72
2021/11/25 10:02:58;;;;;;;40.30;27.02;;;;;;;4.38;70.16;99173.84;5028817;28;20520;-74
2021/11/25 10:05:23;;;;;;;48.42;27.38;;;;;;;4.36;69.81;99175.66;5028967;28;20045;-73
2021/11/25 10:07:49;;;;;;;46.67;30.25;;;;;;;4.36;70.31;99182.63;5029530;28;20091;-73
2021/11/25 10:10:28;;;;;;;44.15;29.25;;;;;;;4.33;70.42;99183.56;5028228;28;20037;-72
2021/11/25 10:12:59;;;;;;;45.47;30.63;;;;;;;4.32;70.49;99181.03;5029859;28;20083;-74
2021/11/25 10:15:38;;;;;;;44.92;29.08;;;;;;;4.30;70.77;99183.66;5049486;28;20037;-73
2021/11/25 10:18:15;;;;;;;45.28;28.35;;;;;;;4.34;70.85;99187.03;5048763;28;20033;-73
2021/11/25 10:20:46;;;;;;;50.00;33.55;;;;;;;4.38;70.61;99188.63;5046844;28;20511;-72
2021/11/25 10:23:24;;;;;;;41.58;29.65;;;;;;;4.39;70.20;99188.59;5047506;28;20021;-74
2021/11/25 10:25:59;;;;;;;46.75;30.55;;;;;;;4.40;71.08;99184.22;5049001;28;20067;-73
2021/11/25 10:28:34;;;;;;;42.90;28.65;;;;;;;4.44;70.52;99180.59;5048827;28;20037;-72
2021/11/25 10:31:11;;;;;;;45.60;32.60;;;;;;;4.40;70.38;99169.41;5054643;28;20647;-73
2021/11/25 10:34:03;;;;;;;46.08;29.20;;;;;;;4.42;70.40;99162.38;5052575;28;20108;-72
2021/11/25 10:42:09;;;;;;;47.75;31.55;;;;;;;4.86;70.13;99166.97;5049535;28;20060;-73
2021/11/25 10:44:40;;;;;;;41.28;29.95;;;;;;;4.91;70.28;99171.09;5025612;28;20037;-72
2021/11/25 10:47:07;;;;;;;41.75;28.67;;;;;;;4.92;69.96;99171.94;5030072;28;20385;-73
2021/11/25 10:49:54;;;;;;;41.72;29.20;;;;;;;4.94;69.53;99164.91;5022690;28;20976;-72
2021/11/25 10:52:50;;;;;;;45.55;30.00;;;;;;;4.99;69.33;99165.59;5032894;28;20405;-74
2021/11/25 10:55:15;;;;;;;43.50;29.02;;;;;;;4.97;70.07;99166.56;5007122;28;20057;-74
2021/11/25 10:57:56;;;;;;;44.30;27.98;;;;;;;5.03;69.44;99174.19;5030036;28;20136;-73
2021/11/25 11:00:27;;;;;;;47.03;29.00;;;;;;;5.08;69.43;99165.25;5030143;28;20596;-72
2021/11/25 11:03:05;;;;;;;44.97;30.63;;;;;;;4.94;69.29;99162.31;5034189;28;20178;-74
2021/11/25 11:05:43;;;;;;;45.33;31.73;;;;;;;4.93;69.27;99158.00;5029687;28;20114;-74
2021/11/25 11:08:08;;;;;;;42.47;28.52;;;;;;;4.97;69.82;99158.72;5029419;28;20022;-74
2021/11/25 11:10:34;;;;;;;45.80;27.77;;;;;;;4.91;69.84;99155.44;5027204;28;20440;-73
2021/11/25 11:13:22;;;;;;;47.33;29.00;;;;;;;4.91;69.38;99155.44;5027679;28;20060;-72
2021/11/25 11:21:40;;;;;;;40.08;26.67;;;;;;;5.08;69.81;99143.53;5027142;28;20040;-72
2021/11/25 11:24:07;;;;;;;48.20;31.52;;;;;;;5.14;68.79;99130.22;5027899;28;20033;-72
2021/11/25 11:26:35;;;;;;;44.08;28.85;;;;;;;5.24;69.79;99115.91;5027079;28;20087;-72
2021/11/25 11:29:00;;;;;;;40.00;26.17;;;;;;;5.40;69.42;99120.53;5026871;28;20069;-72
2021/11/25 11:31:26;;;;;;;38.05;26.23;;;;;;;5.58;68.87;99114.56;5027833;28;20049;-73
2021/11/25 11:33:53;;;;;;;39.67;28.80;;;;;;;5.68;68.31;99110.69;5026629;28;20100;-75
2021/11/25 11:36:20;;;;;;;40.17;26.30;;;;;;;5.70;67.74;99119.31;5027786;28;20048;-73
2021/11/25 11:38:48;;;;;;;39.75;27.02;;;;;;;5.60;67.98;99118.84;5027745;28;20689;-73
2021/11/25 11:41:14;;;;;;;41.17;27.70;;;;;;;5.54;68.18;99120.88;5026616;28;20033;-74